createdAt,value
2019-04-14T04:10:01.246Z,83.0
2019-04-14T04:11:01.995Z,87.0
2019-04-14T04:12:00.995Z,91.3
2019-04-14T04:13:01.946Z,99.8
2019-04-14T04:14:01.032Z,109.2
2019-04-14T04:15:01.923Z,117.5
2019-04-14T04:16:01.030Z,123.7
2019-04-14T04:17:01.548Z,129.8
2019-04-14T04:18:01.057Z,136.8
2019-04-14T04:19:05.503Z,145.5
2019-04-14T04:20:02.458Z,155.9
2019-04-14T04:21:01.027Z,165.4
2019-04-14T04:22:02.102Z,171.2
2019-04-14T04:23:00.998Z,178.1
2019-04-14T04:24:02.060Z,187.1
2019-04-14T04:25:01.173Z,199.4
2019-04-14T04:26:01.822Z,210.7
2019-04-14T04:27:01.031Z,223.7
2019-04-14T04:28:06.130Z,236.9
2019-04-14T04:29:01.026Z,250.4
2019-04-14T04:30:01.636Z,266.6
2019-04-14T04:31:02.341Z,282.8
2019-04-14T04:32:01.383Z,296.7
2019-04-14T04:33:02.222Z,311.5
2019-04-14T04:34:01.121Z,328.0
2019-04-14T04:35:02.181Z,343.7
2019-04-14T04:36:01.146Z,362.1
2019-04-14T04:37:01.794Z,385.4
2019-04-14T04:38:00.998Z,411.1
2019-04-14T04:39:01.766Z,438.3
2019-04-14T04:40:01.188Z,477.3
2019-04-14T04:41:01.562Z,518.5
2019-04-14T04:42:01.028Z,556.1
2019-04-14T04:43:01.265Z,590.6
2019-04-14T04:44:01.037Z,629.5
2019-04-14T04:45:01.770Z,668.2
2019-04-14T04:46:01.036Z,706.9
2019-04-14T04:47:01.237Z,750.6
2019-04-14T04:48:02.298Z,788.4
2019-04-14T04:49:09.460Z,823.9
2019-04-14T04:50:02.383Z,872.3
2019-04-14T04:51:01.005Z,926.7
2019-04-14T04:52:01.802Z,985.0
2019-04-14T04:53:01.031Z,1051.5
2019-04-14T04:54:01.670Z,1126.2
2019-04-14T04:55:02.248Z,1203.9
2019-04-14T04:56:01.461Z,1287.7
2019-04-14T04:57:01.034Z,1376.7
2019-04-14T04:58:01.399Z,1468.3
2019-04-14T04:59:01.151Z,1557.6
2019-04-14T05:00:01.151Z,1651.1
2019-04-14T05:01:01.395Z,1756.4
2019-04-14T05:02:01.001Z,1872.5
2019-04-14T05:03:01.399Z,2003.0
2019-04-14T05:04:01.006Z,2132.7
2019-04-14T05:05:01.322Z,2245.5
2019-04-14T05:06:01.036Z,2347.5
2019-04-14T05:07:01.477Z,2443.6
2019-04-14T05:08:02.187Z,2529.9
2019-04-14T05:09:01.290Z,2606.3
2019-04-14T05:10:02.520Z,2677.4
2019-04-14T05:11:01.125Z,2746.7
2019-04-14T05:12:02.244Z,2812.4
2019-04-14T05:13:01.009Z,2876.7
2019-04-14T05:14:02.010Z,2942.9
2019-04-14T05:15:01.218Z,3008.9
2019-04-14T05:16:02.078Z,3072.5
2019-04-14T05:17:01.444Z,3134.9
2019-04-14T05:18:01.004Z,3199.3
2019-04-14T05:19:11.829Z,3268.9
2019-04-14T05:20:01.239Z,3342.9
2019-04-14T05:21:01.746Z,3421.2
2019-04-14T05:22:01.047Z,3506.1
2019-04-14T05:23:01.563Z,3600.4
2019-04-14T05:24:01.041Z,3702.6
2019-04-14T05:25:03.597Z,3797.1
2019-04-14T05:26:01.037Z,3877.2
2019-04-14T05:27:01.345Z,3956.9
2019-04-14T05:28:01.047Z,4046.6
2019-04-14T05:29:01.404Z,4147.9
2019-04-14T05:30:02.568Z,4264.8
2019-04-14T05:31:01.332Z,4390.2
2019-04-14T05:32:02.290Z,4512.0
2019-04-14T05:33:01.013Z,4632.9
2019-04-14T05:34:02.161Z,4769.9
2019-04-14T05:35:01.192Z,4932.7
2019-04-14T05:36:02.066Z,5115.9
2019-04-14T05:37:01.041Z,5317.2
2019-04-14T05:38:01.805Z,5533.9
2019-04-14T05:39:01.046Z,5756.5
2019-04-14T05:40:01.589Z,6034.3
2019-04-14T05:41:01.044Z,6353.7
2019-04-14T05:42:08.350Z,6704.1
2019-04-14T05:43:01.012Z,7101.9
2019-04-14T05:44:02.842Z,7544.1
2019-04-14T05:45:02.352Z,8030.4
2019-04-14T05:46:01.291Z,8551.7
2019-04-14T05:47:02.092Z,9091.3
2019-04-14T05:48:01.175Z,9640.5
2019-04-14T05:49:02.087Z,10188.5
2019-04-14T05:50:01.162Z,10744.1
2019-04-14T05:51:01.986Z,11322.7
2019-04-14T05:52:01.258Z,11917.1
2019-04-14T05:53:02.154Z,12536.6
2019-04-14T05:54:01.122Z,13202.9
2019-04-14T05:55:02.348Z,13863.7
2019-04-14T05:56:01.436Z,14513.7
2019-04-14T05:57:02.210Z,15123.7
2019-04-14T05:58:01.420Z,15668.3
2019-04-14T05:59:02.172Z,16170.1
2019-04-14T06:00:01.771Z,16633.5
2019-04-14T06:01:02.110Z,17042.1
2019-04-14T06:02:01.053Z,17370.4
2019-04-14T06:03:01.667Z,17610.1
2019-04-14T06:04:01.054Z,17802.5
2019-04-14T06:05:01.523Z,17959.7
2019-04-14T06:06:01.054Z,18055.2
2019-04-14T06:07:01.020Z,18074.9
2019-04-14T06:08:01.052Z,18020.1
2019-04-14T06:09:01.020Z,17894.4
2019-04-14T06:10:04.568Z,17674.1
2019-04-14T06:11:01.060Z,17434.1
2019-04-14T06:12:06.065Z,17155.7
2019-04-14T06:13:01.023Z,16836.7
2019-04-14T06:14:01.026Z,16470.6
2019-04-14T06:15:01.418Z,16049.7
2019-04-14T06:16:01.064Z,15610.1
2019-04-14T06:17:01.022Z,15219.8
2019-04-14T06:18:01.047Z,14892.1
2019-04-14T06:19:01.025Z,14588.0
2019-04-14T06:20:01.203Z,14291.5
2019-04-14T06:21:01.057Z,14029.0
2019-04-14T06:22:01.056Z,13829.5
2019-04-14T06:23:01.093Z,13674.2
2019-04-14T06:24:01.022Z,13552.5
2019-04-14T06:25:01.290Z,13524.6
2019-04-14T06:26:01.022Z,13520.2
2019-04-14T06:27:01.024Z,13522.8
2019-04-14T06:28:01.056Z,13612.5
2019-04-14T06:29:01.061Z,13799.7
2019-04-14T06:30:01.206Z,14135.3
2019-04-14T06:31:01.027Z,14634.3
2019-04-14T06:32:01.058Z,15171.7
2019-04-14T06:33:01.057Z,15700.4
2019-04-14T06:34:01.061Z,16249.1
2019-04-14T06:35:01.179Z,16897.8
2019-04-14T06:36:01.026Z,17639.9
2019-04-14T06:37:01.058Z,18405.8
2019-04-14T06:38:01.068Z,19180.9
2019-04-14T06:39:01.814Z,20008.5
2019-04-14T06:40:01.209Z,20763.8
2019-04-14T06:41:01.063Z,21388.9
2019-04-14T06:42:01.036Z,22172.0
2019-04-14T06:43:01.069Z,23047.0
2019-04-14T06:44:01.059Z,23953.9
2019-04-14T06:45:01.204Z,24696.2
2019-04-14T06:46:01.061Z,25245.4
2019-04-14T06:47:01.064Z,25725.3
2019-04-14T06:48:01.031Z,26060.7
2019-04-14T06:49:01.038Z,26510.2
2019-04-14T06:50:01.216Z,26868.9
2019-04-14T06:51:01.062Z,27150.1
2019-04-14T06:52:01.070Z,27455.1
2019-04-14T06:53:01.072Z,27788.5
2019-04-14T06:54:01.060Z,28236.2
2019-04-14T06:55:03.972Z,28791.3
2019-04-14T06:56:01.028Z,29475.2
2019-04-14T06:57:01.455Z,30051.5
2019-04-14T06:58:01.085Z,30493.0
2019-04-14T06:59:01.067Z,30996.9
2019-04-14T07:00:01.325Z,31602.3
2019-04-14T07:01:01.030Z,32290.4
2019-04-14T07:02:01.805Z,33023.7
2019-04-14T07:03:01.069Z,33771.7
2019-04-14T07:04:01.034Z,34359.7
2019-04-14T07:05:01.181Z,35009.4
2019-04-14T07:06:01.056Z,35807.8
2019-04-14T07:07:01.034Z,36603.0
2019-04-14T07:08:01.065Z,37355.5
2019-04-14T07:09:01.066Z,38077.2
2019-04-14T07:10:01.214Z,38902.1
2019-04-14T07:11:01.066Z,39833.3
2019-04-14T07:12:01.063Z,40988.5
2019-04-14T07:13:01.069Z,42300.3
2019-04-14T07:14:01.037Z,43621.1
2019-04-14T07:15:01.323Z,45071.9
2019-04-14T07:16:01.038Z,46713.5
2019-04-14T07:17:01.070Z,48425.3
2019-04-14T07:18:01.040Z,50300.9
2019-04-14T07:19:01.064Z,52006.8
2019-04-14T07:20:02.436Z,53871.5
2019-04-14T07:21:02.047Z,55552.8
2019-04-14T07:22:01.073Z,57161.3
2019-04-14T07:23:01.046Z,58752.5
2019-04-14T07:24:01.076Z,60082.5
2019-04-14T07:25:01.216Z,61167.8
2019-04-14T07:26:01.076Z,62153.3
2019-04-14T07:27:01.071Z,62998.2
2019-04-14T07:28:01.072Z,63723.9
2019-04-14T07:29:01.044Z,64277.3
2019-04-14T07:30:01.300Z,64641.3
2019-04-14T07:31:01.071Z,64782.5
2019-04-14T07:32:01.081Z,64842.0
2019-04-14T07:33:01.039Z,64880.7
2019-04-14T07:34:01.071Z,65118.1
2019-04-14T07:39:01.076Z,65217.1
2019-04-14T07:40:01.219Z,65375.1
2019-04-14T07:41:01.075Z,65501.8
2019-04-14T07:42:01.841Z,65535.0
2019-04-14T07:45:01.292Z,65535.0
2019-04-14T08:00:01.202Z,65535.0
2019-04-14T08:15:01.376Z,65535.0
2019-04-14T08:30:01.965Z,65535.0
2019-04-14T08:45:01.313Z,65535.0
2019-04-14T09:00:02.186Z,65535.0
2019-04-14T09:15:01.369Z,65535.0
2019-04-14T09:30:01.246Z,65535.0
2019-04-14T09:45:01.315Z,65535.0
2019-04-14T10:00:01.278Z,65535.0
2019-04-14T10:15:01.323Z,65535.0
2019-04-14T10:30:01.340Z,65535.0
2019-04-14T10:45:01.376Z,65535.0
2019-04-14T11:00:01.428Z,65535.0
2019-04-14T11:15:01.234Z,65535.0
2019-04-14T11:30:01.395Z,65535.0
2019-04-14T11:45:01.241Z,65535.0
2019-04-14T12:00:01.366Z,65535.0
2019-04-14T12:15:01.157Z,65535.0
2019-04-14T12:30:01.379Z,65535.0
2019-04-14T12:45:01.392Z,65535.0
2019-04-14T13:00:01.191Z,65535.0
2019-04-14T13:15:02.786Z,65535.0
2019-04-14T13:30:01.098Z,65535.0
2019-04-14T13:45:01.166Z,65535.0
2019-04-14T14:00:01.115Z,65535.0
2019-04-14T14:15:01.202Z,65535.0
2019-04-14T14:30:01.374Z,65535.0
2019-04-14T14:45:01.097Z,65535.0
2019-04-14T15:00:01.083Z,65535.0
2019-04-14T15:15:01.098Z,65535.0
2019-04-14T15:30:01.063Z,65535.0
2019-04-14T15:45:01.095Z,65535.0
2019-04-14T16:00:01.109Z,65535.0
2019-04-14T16:15:02.614Z,65535.0
2019-04-14T16:17:01.054Z,65461.5
2019-04-14T16:18:01.088Z,65210.7
2019-04-14T16:19:01.052Z,64856.7
2019-04-14T16:20:01.211Z,64298.0
2019-04-14T16:21:01.088Z,63527.5
2019-04-14T16:22:01.088Z,62667.5
2019-04-14T16:23:01.083Z,61717.5
2019-04-14T16:24:01.083Z,60631.3
2019-04-14T16:25:01.199Z,59361.3
2019-04-14T16:26:01.092Z,57921.9
2019-04-14T16:27:01.053Z,56355.1
2019-04-14T16:28:01.086Z,54679.2
2019-04-14T16:29:02.583Z,52918.0
2019-04-14T16:30:01.208Z,51075.5
2019-04-14T16:31:01.091Z,49145.6
2019-04-14T16:32:01.057Z,47205.3
2019-04-14T16:33:01.088Z,45366.9
2019-04-14T16:34:01.096Z,43565.7
2019-04-14T16:35:01.265Z,41914.4
2019-04-14T16:36:01.056Z,40429.4
2019-04-14T16:37:01.090Z,38993.4
2019-04-14T16:38:01.063Z,37584.5
2019-04-14T16:39:01.058Z,36260.9
2019-04-14T16:40:01.238Z,35104.9
2019-04-14T16:41:01.058Z,34116.7
2019-04-14T16:42:01.091Z,33251.1
2019-04-14T16:43:01.089Z,32486.3
2019-04-14T16:44:01.090Z,31793.6
2019-04-14T16:45:01.239Z,31168.8
2019-04-14T16:46:01.097Z,30615.1
2019-04-14T16:47:01.087Z,30127.4
2019-04-14T16:48:01.088Z,29702.7
2019-04-14T16:49:01.058Z,29334.4
2019-04-14T16:50:01.263Z,29007.5
2019-04-14T16:51:01.089Z,28708.7
2019-04-14T16:52:01.089Z,28432.9
2019-04-14T16:53:01.056Z,28205.4
2019-04-14T16:54:03.072Z,28018.3
2019-04-14T16:55:02.196Z,27837.7
2019-04-14T16:56:01.088Z,27648.0
2019-04-14T16:57:01.088Z,27456.1
2019-04-14T16:58:01.091Z,27269.1
2019-04-14T16:59:01.119Z,27084.8
2019-04-14T17:00:01.246Z,26902.6
2019-04-14T17:01:01.090Z,26722.8
2019-04-14T17:02:10.581Z,26545.9
2019-04-14T17:03:01.080Z,26367.1
2019-04-14T17:04:01.092Z,26181.1
2019-04-14T17:05:01.237Z,25987.8
2019-04-14T17:06:01.095Z,25787.5
2019-04-14T17:07:01.064Z,25572.7
2019-04-14T17:08:01.093Z,25325.5
2019-04-14T17:09:01.064Z,25052.3
2019-04-14T17:10:01.237Z,24767.0
2019-04-14T17:11:01.067Z,24452.0
2019-04-14T17:12:01.095Z,24102.3
2019-04-14T17:13:01.092Z,23735.7
2019-04-14T17:14:01.065Z,23360.6
2019-04-14T17:15:01.303Z,22977.5
2019-04-14T17:16:01.061Z,22588.1
2019-04-14T17:17:01.095Z,22196.6
2019-04-14T17:18:01.105Z,21800.1
2019-04-14T17:19:01.070Z,21404.0
2019-04-14T17:20:02.230Z,21012.0
2019-04-14T17:21:01.513Z,20631.0
2019-04-14T17:22:01.066Z,20264.4
2019-04-14T17:24:02.500Z,19900.9
2019-04-14T17:25:02.483Z,19561.1
2019-04-14T17:26:01.089Z,19221.6
2019-04-14T17:27:01.081Z,18893.7
2019-04-14T17:28:01.088Z,18582.6
2019-04-14T17:29:01.082Z,18265.7
2019-04-14T17:30:01.193Z,17945.4
2019-04-14T17:31:01.051Z,17633.4
2019-04-14T17:32:01.084Z,17328.2
2019-04-14T17:33:01.094Z,17024.5
2019-04-14T17:34:01.086Z,16728.9
2019-04-14T17:35:01.310Z,16438.9
2019-04-14T17:36:01.084Z,16148.6
2019-04-14T17:37:01.053Z,15850.1
2019-04-14T17:38:01.097Z,15542.1
2019-04-14T17:39:01.062Z,15250.9
2019-04-14T17:40:01.233Z,14946.9
2019-04-14T17:41:06.100Z,14645.4
2019-04-14T17:42:01.098Z,14355.0
2019-04-14T17:43:01.087Z,14074.5
2019-04-14T17:44:01.093Z,13807.5
2019-04-14T17:45:01.203Z,13552.2
2019-04-14T17:46:01.057Z,13294.9
2019-04-14T17:47:01.112Z,13039.5
2019-04-14T17:48:01.094Z,12794.0
2019-04-14T17:49:01.092Z,12553.4
2019-04-14T17:50:01.376Z,12311.9
2019-04-14T17:51:03.262Z,12073.0
2019-04-14T17:52:01.060Z,11838.2
2019-04-14T17:53:01.062Z,11606.4
2019-04-14T17:54:01.060Z,11378.7
2019-04-14T17:55:01.207Z,11159.1
2019-04-14T17:56:01.120Z,10938.0
2019-04-14T17:57:01.148Z,10715.4
2019-04-14T17:58:01.102Z,10488.6
2019-04-14T17:59:01.067Z,10255.5
2019-04-14T18:00:01.319Z,10014.3
2019-04-14T18:01:01.096Z,9766.5
2019-04-14T18:02:01.095Z,9510.9
2019-04-14T18:03:01.117Z,9241.2
2019-04-14T18:04:01.096Z,8960.0
2019-04-14T18:05:01.240Z,8673.8
2019-04-14T18:06:01.093Z,8385.9
2019-04-14T18:07:01.124Z,8098.7
2019-04-14T18:08:01.099Z,7818.2
2019-04-14T18:09:01.108Z,7541.7
2019-04-14T18:10:01.283Z,7263.5
2019-04-14T18:11:01.070Z,6986.5
2019-04-14T18:12:01.126Z,6709.7
2019-04-14T18:13:01.120Z,6433.5
2019-04-14T18:14:01.064Z,6158.3
2019-04-14T18:15:01.245Z,5884.8
2019-04-14T18:16:01.097Z,5614.1
2019-04-14T18:17:01.095Z,5346.7
2019-04-14T18:18:01.108Z,5083.3
2019-04-14T18:19:01.065Z,4823.3
2019-04-14T18:20:02.230Z,4565.7
2019-04-14T18:21:01.078Z,4310.1
2019-04-14T18:22:01.100Z,4058.2
2019-04-14T18:23:01.070Z,3811.5
2019-04-14T18:24:01.100Z,3571.6
2019-04-14T18:26:01.227Z,3329.1
2019-04-14T18:27:01.085Z,3095.8
2019-04-14T18:28:02.577Z,2872.1
2019-04-14T18:29:01.083Z,2657.9
2019-04-14T18:30:01.086Z,2453.5
2019-04-14T18:31:01.250Z,2258.5
2019-04-14T18:32:01.085Z,2072.8
2019-04-14T18:33:01.109Z,1896.7
2019-04-14T18:34:01.091Z,1729.7
2019-04-14T18:35:01.087Z,1571.9
2019-04-14T18:36:01.317Z,1423.3
2019-04-14T18:37:01.059Z,1283.8
2019-04-14T18:38:01.088Z,1153.5
2019-04-14T18:39:01.087Z,1031.8
2019-04-14T18:40:01.089Z,918.7
2019-04-14T18:41:01.205Z,824.5
2019-04-14T18:42:01.094Z,737.7
2019-04-14T18:43:01.091Z,657.8
2019-04-14T18:44:01.065Z,584.6
2019-04-14T18:45:01.089Z,517.7
2019-04-14T18:46:01.201Z,457.0
2019-04-14T18:47:01.100Z,402.1
2019-04-14T18:48:01.061Z,352.7
2019-04-14T18:49:02.020Z,308.4
2019-04-14T18:50:01.057Z,268.9
2019-04-14T18:51:01.201Z,233.8
2019-04-14T18:52:01.093Z,202.6
2019-04-14T18:53:06.097Z,175.0
2019-04-14T18:54:01.089Z,150.6
2019-04-14T18:55:01.090Z,129.1
2019-04-14T18:56:01.240Z,110.4
2019-04-14T18:57:01.089Z,94.1
2019-04-14T18:58:01.060Z,80.1
2019-04-14T18:59:01.059Z,68.0
2019-04-14T19:00:01.976Z,57.8
2019-04-14T19:01:01.266Z,49.1
2019-04-14T19:02:01.096Z,41.7
2019-04-14T19:03:01.061Z,35.5
2019-04-14T19:04:02.339Z,30.2
2019-04-14T19:05:01.095Z,25.7
2019-04-14T19:06:01.290Z,21.8
2019-04-14T19:07:01.061Z,18.5
2019-04-14T19:08:01.092Z,15.7
2019-04-14T19:09:01.126Z,13.5
2019-04-14T19:10:01.069Z,11.5
2019-04-14T19:11:01.241Z,9.9
2019-04-14T19:12:01.093Z,8.4
2019-04-14T19:13:01.061Z,7.2
2019-04-14T19:14:01.093Z,6.2
2019-04-14T19:15:01.065Z,5.3
2019-04-14T19:16:01.243Z,4.7
2019-04-14T19:17:01.062Z,4.0
2019-04-14T19:18:01.062Z,3.5
2019-04-14T19:19:01.094Z,3.0
2019-04-14T19:20:02.348Z,2.6
2019-04-14T19:21:01.283Z,2.3
2019-04-14T19:22:01.067Z,2.0
2019-04-14T19:23:01.061Z,1.8
2019-04-14T19:24:01.093Z,1.6
2019-04-14T19:25:07.682Z,1.5
2019-04-14T19:26:01.247Z,1.3
2019-04-14T19:27:01.980Z,1.2
2019-04-14T19:28:01.094Z,1.1
2019-04-14T19:29:01.066Z,0.9
2019-04-14T19:30:01.063Z,0.8
2019-04-14T19:31:01.253Z,0.7
2019-04-14T19:32:01.095Z,0.6
2019-04-14T19:33:01.064Z,0.5
2019-04-14T19:35:01.098Z,0.4
2019-04-14T19:36:01.274Z,0.3
2019-04-14T19:38:01.095Z,0.2
2019-04-14T19:39:01.099Z,0.1
